• Join FlightAware (Why Join?)
  • Login
  • US Flag 
12:51PM EDT


 

Airport Tracker/Info


-or-


 

Live Flight TrackerFlight Track Log ✈ JIA2335 ✈ 10-May-2013 ✈ KPHL - KDAY

Flight Track Log - Related Links

Times and Time Zones

All times are in EDT time to prevent confusion due to time zone crossing. See the JIA2335 flight status page for this flight to view local times or setup timezone preferences in your user account.

Time Position Orientation Groundspeed Altitude Reporting Facility
EDT Latitude Longitude Course Direction KTS MPH feet Rate Location/Type
09:28AM 39.8667 -75.2833 270° West 165 190 500  Level Philadelphia TRACON
09:30AM 39.8500 -75.3667 255° West 203 234 3,300 2,100 Climbing Philadelphia TRACON
09:31AM 39.9000 -75.5722 270° West  Level FlightAware Approximate
09:31AM 39.8333 -75.4333 252° West 253 291 5,200  Level Philadelphia TRACON
09:32AM 39.9132 -75.6876 258° West  Level FlightAware Approximate
09:32AM 39.8183 -75.6061 264° West 284 327 9,700  Level New York Center
09:33AM 39.9000 -75.8045 270° West  Level FlightAware Approximate
09:33AM 39.8339 -75.6883 284° West 274 315 10,000  Level New York Center
09:34AM 39.9000 -75.9232 270° West  Level FlightAware Approximate
09:34AM 39.8433 -75.8081 276° West 288 331 11,100  Level New York Center
09:35AM 39.8514 -75.9086 276° West 313 360 12,500 1,500 Climbing New York Center
09:36AM 39.8625 -76.0392 276° West 323 372 14,200 1,380 Climbing New York Center
09:37AM 39.8678 -76.1506 274° West 343 395 15,300 1,080 Climbing New York Center
09:38AM 39.8806 -76.2786 277° West 349 402 16,400 1,020 Climbing New York Center
09:39AM 39.8906 -76.4203 275° West 359 413 17,400 900 Climbing New York Center
09:40AM 39.8972 -76.5400 274° West 372 428 18,300 960 Climbing New York Center
09:41AM 39.9086 -76.6897 276° West 372 428 19,400 960 Climbing New York Center
09:42AM 39.9150 -76.8092 274° West 372 428 20,300 900 Climbing New York Center
09:43AM 39.9231 -76.9400 275° West 372 428 21,300 960 Climbing New York Center
09:44AM 39.9303 -77.0761 274° West 372 428 22,300 960 Climbing New York Center
09:45AM 39.9400 -77.2069 276° West 372 428 23,300 960 Climbing New York Center
09:46AM 39.9494 -77.3406 275° West 372 428 24,300 960 Climbing New York Center
09:47AM 39.9578 -77.4875 274° West 372 428 25,200 1,080 Climbing New York Center
09:49AM 39.9717 -77.6761 276° West 355 409 27,000 1,080 Climbing Cleveland Center
09:50AM 39.9769 -77.8033 273° West 355 409 28,000 960 Climbing Cleveland Center
09:51AM 39.9864 -77.9331 275° West 355 409 29,000 960 Climbing Cleveland Center
09:52AM 39.9933 -78.0547 274° West 355 409 30,000 1,020 Climbing Cleveland Center
09:53AM 39.9981 -78.1767 273° West 344 396 31,100 600 Climbing Cleveland Center
09:54AM 40.0025 -78.2983 273° West 344 396 31,300 180 Climbing Cleveland Center
09:55AM 40.0072 -78.4283 273° West 350 403 31,500 180 Climbing Cleveland Center
09:56AM 40.0158 -78.5581 275° West 360 414 31,700  Climbing Cleveland Center
09:57AM 40.0222 -78.6908 274° West 365 420 31,500 -300 Descending Cleveland Center
09:58AM 40.0286 -78.8317 273° West 375 432 31,100 -540 Descending Cleveland Center
09:59AM 40.0392 -78.9750 276° West 391 450 30,500 -600 Descending Cleveland Center
10:00AM 40.0472 -79.1186 274° West 401 461 30,000 -300 Descending Cleveland Center
10:01AM 40.0533 -79.2675 273° West 406 467 30,000 -300 Level Cleveland Center
10:02AM 40.0611 -79.4086 274° West 406 467 29,500 -840 Descending Cleveland Center
10:03AM 40.0647 -79.5522 272° West 400 460 28,400 -780 Descending Cleveland Center
10:04AM 40.0719 -79.6933 274° West 400 460 28,000 -240 Descending Cleveland Center
10:05AM 40.0772 -79.8261 273° West 393 452 28,000  Level Cleveland Center
10:06AM 40.0822 -79.9536 273° West 380 437 28,000  Level Cleveland Center
10:07AM 40.0828 -80.0839 270° West 352 405 28,000  Level Cleveland Center
10:08AM 40.0875 -80.2114 273° West 352 405 28,000  Level Cleveland Center
10:09AM 40.0939 -80.3417 274° West 357 411 28,000  Level Cleveland Center
10:10AM 40.1025 -80.4556 276° West 362 417 28,000  Level Cleveland Center
10:11AM 40.1089 -80.5886 274° West 368 423 28,000  Level Cleveland Center
10:12AM 40.1150 -80.7214 273° West 368 423 28,000  Level Cleveland Center
10:13AM 40.1211 -80.9514 272° West 372 428 28,000 -300 Level Indianapolis Center
10:15AM 40.1272 -81.0847 273° West 368 423 27,300 -900 Descending Indianapolis Center
10:16AM 40.1322 -81.2181 273° West 366 421 26,200 -1,080 Descending Indianapolis Center
10:17AM 40.1378 -81.3522 273° West 365 420 25,100 -1,080 Descending Indianapolis Center
10:18AM 40.1425 -81.4836 273° West 362 417 24,000 -540 Descending Indianapolis Center
10:19AM 40.1475 -81.6117 273° West 355 409 24,000 -240 Level Indianapolis Center
10:20AM 40.1519 -81.7381 273° West 348 400 23,600 -540 Descending Indianapolis Center
10:21AM 40.1567 -81.8922 272° West 358 412 23,000 -300 Descending Indianapolis Center
10:22AM 40.1614 -82.0256 273° West 363 418 23,000  Level Indianapolis Center
10:23AM 40.1658 -82.1581 273° West 363 418 23,000  Level Indianapolis Center
10:24AM 40.1697 -82.2892 272° West 360 414 23,000  Level Indianapolis Center
10:25AM 40.1742 -82.4211 273° West 361 415 23,000  Level Indianapolis Center
10:26AM 40.1778 -82.5522 272° West 358 412 23,000 -300 Level Indianapolis Center
10:27AM 40.1806 -82.6831 272° West 358 412 22,500 -1,260 Descending Indianapolis Center
10:28AM 40.1853 -82.8325 272° West 351 404 20,500 -1,800 Descending Indianapolis Center
10:29AM 40.1786 -82.9542 266° West 336 387 18,800 -1,680 Descending Indianapolis Center
10:30AM 40.1547 -83.0689 255° West 326 375 17,100 -1,680 Descending Indianapolis Center
10:31AM 40.1311 -83.1831 255° West 323 372 15,400 -1,740 Descending Indianapolis Center
10:32AM 40.1067 -83.2947 254° West 320 368 13,600 -1,800 Descending Indianapolis Center
10:33AM 40.0842 -83.3936 253° West 316 364 12,200 -1,680 Descending Indianapolis Center
10:33AM 40.0833 -83.4047 264° West 314 361 11,900 -960 Descending Indianapolis Center
10:34AM 40.0606 -83.5239 256° West 287 330 11,000 -780 Descending Indianapolis Center
10:35AM 40.0467 -83.5908 255° West 253 291 10,600 -780 Descending Indianapolis Center
10:35AM 40.0433 -83.6131 259° West 257 296 10,200 -1,620 Descending Indianapolis Center
10:36AM 40.0300 -83.6758 255° West 244 281 9,000 -1,680 Descending Indianapolis Center
10:36AM 40.0264 -83.6994 259° West 247 284 8,500 -1,680 Descending Indianapolis Center
10:37AM 40.0128 -83.7664 255° West 239 275 7,300 -1,560 Descending Indianapolis Center
10:37AM 40.0106 -83.7842 261° West 244 281 6,900 -1,500 Descending Indianapolis Center
10:38AM 40.0011 -83.8694 262° West 241 277 5,300 -1,680 Descending Indianapolis Center
10:39AM 40.0019 -83.9394 271° West 239 275 4,100 -1,560 Descending Indianapolis Center
10:39AM 40.0028 -83.9569 274° West 241 277 3,700 -840 Descending Indianapolis Center
10:40AM 39.9856 -84.0408 255° West 218 251 3,000 -420 Descending Indianapolis Center
10:41AM 39.9586 -84.0944 237° Southwest 177 204 3,000  Level Indianapolis Center